Time;durP1;ratioP1;P1;durP2;ratioP2;P2;SDS_P1;SDS_P2;PMS_P1;PMS_P2;Temp;Humidity;BMP_temperature;BMP_pressure;BME280_temperature;BME280_humidity;BME280_pressure;Samples;Min_cycle;Max_cycle;Signal;HPM_P1;HPM_P2
2023/08/22 00:00:15;;;;;;;2.70;2.45;;;28.90;88.70;;;;;;1748271;82;21589;-76
2023/08/22 00:03:07;;;;;;;5.70;2.50;;;28.80;89.40;;;;;;1747957;82;21118;-76
2023/08/22 00:05:59;;;;;;;2.37;2.05;;;28.90;89.50;;;;;;1745956;82;21139;-76
2023/08/22 00:08:50;;;;;;;3.25;2.20;;;28.90;89.60;;;;;;1740593;82;21615;-76
2023/08/22 00:11:41;;;;;;;3.40;2.22;;;28.80;89.80;;;;;;1740227;82;21133;-76
2023/08/22 00:14:33;;;;;;;4.95;2.35;;;28.80;89.50;;;;;;1740574;82;21210;-76
2023/08/22 00:17:24;;;;;;;5.35;2.67;;;28.80;89.60;;;;;;1740400;82;21169;-77
2023/08/22 00:20:16;;;;;;;4.03;2.47;;;28.70;90.00;;;;;;1740329;82;21188;-77
2023/08/22 00:23:07;;;;;;;3.10;2.40;;;28.70;90.00;;;;;;1740107;82;21127;-77
2023/08/22 00:25:58;;;;;;;3.95;2.47;;;28.60;90.30;;;;;;1739570;82;21179;-77
2023/08/22 00:28:50;;;;;;;4.85;2.25;;;28.50;90.50;;;;;;1739781;82;21263;-77
2023/08/22 00:31:42;;;;;;;3.20;2.50;;;28.40;90.60;;;;;;1740252;82;21149;-76
2023/08/22 00:34:33;;;;;;;3.52;2.42;;;28.40;90.70;;;;;;1753774;79;21148;-77
2023/08/22 00:37:24;;;;;;;3.90;2.50;;;28.40;90.70;;;;;;1757493;82;21219;-77
2023/08/22 00:40:16;;;;;;;3.40;2.50;;;28.50;90.90;;;;;;1757331;82;21222;-77
2023/08/22 00:43:07;;;;;;;5.47;2.75;;;28.50;90.90;;;;;;1757540;82;21141;-77
2023/08/22 00:46:00;;;;;;;5.30;2.65;;;28.40;91.00;;;;;;1757433;82;21234;-77
2023/08/22 00:48:52;;;;;;;3.58;2.52;;;28.40;91.30;;;;;;1757273;82;21155;-77
2023/08/22 00:51:44;;;;;;;2.65;2.45;;;28.30;91.90;;;;;;1757351;82;21211;-77
2023/08/22 00:54:36;;;;;;;3.35;2.67;;;28.00;92.60;;;;;;1757606;82;21137;-76
2023/08/22 00:57:27;;;;;;;6.20;3.05;;;27.90;92.70;;;;;;1757446;82;21153;-76
2023/08/22 01:00:19;;;;;;;5.28;2.70;;;27.90;92.90;;;;;;1757691;82;21106;-76
2023/08/22 01:03:11;;;;;;;3.77;2.98;;;27.90;93.50;;;;;;1757414;82;21165;-76
2023/08/22 01:06:07;;;;;;;5.45;2.65;;;27.80;94.10;;;;;;1757345;82;21216;-76
2023/08/22 01:09:01;;;;;;;4.53;2.90;;;27.70;94.70;;;;;;1757420;82;21129;-76
2023/08/22 01:11:55;;;;;;;5.03;3.05;;;27.50;94.90;;;;;;1768303;81;21158;-76
2023/08/22 01:14:49;;;;;;;4.05;2.72;;;27.30;96.00;;;;;;1757264;82;21109;-76
2023/08/22 01:17:40;;;;;;;3.70;2.83;;;27.20;96.50;;;;;;1757220;82;21628;-76
2023/08/22 01:20:33;;;;;;;4.42;2.90;;;27.10;96.70;;;;;;1757321;82;21110;-77
2023/08/22 01:23:26;;;;;;;3.47;3.05;;;27.10;96.90;;;;;;1757341;82;21152;-76
2023/08/22 01:26:17;;;;;;;5.03;2.95;;;27.20;97.00;;;;;;1757173;82;21279;-76
2023/08/22 01:29:11;;;;;;;3.17;2.75;;;27.20;97.30;;;;;;1757427;82;21153;-76
2023/08/22 01:32:07;;;;;;;5.15;2.67;;;27.10;97.50;;;;;;1757522;82;21145;-76
2023/08/22 01:35:02;;;;;;;4.05;2.80;;;27.10;97.70;;;;;;1757327;80;21172;-76
2023/08/22 01:37:55;;;;;;;5.47;3.02;;;27.00;97.90;;;;;;1757369;82;21256;-76
2023/08/22 01:40:50;;;;;;;4.00;2.85;;;27.00;98.30;;;;;;1757099;82;21140;-77
2023/08/22 01:43:44;;;;;;;2.75;2.52;;;27.00;98.80;;;;;;1757211;82;21168;-76
2023/08/22 01:46:35;;;;;;;3.30;2.30;;;27.00;99.00;;;;;;1757217;82;21140;-76
2023/08/22 01:49:27;;;;;;;4.12;2.90;;;27.00;99.30;;;;;;1757249;82;21223;-76
2023/08/22 01:52:19;;;;;;;4.33;2.92;;;27.00;99.60;;;;;;1757314;82;21215;-77
2023/08/22 01:55:15;;;;;;;2.90;2.60;;;27.00;99.90;;;;;;1757264;82;21379;-76
2023/08/22 01:58:10;;;;;;;4.05;2.50;;;27.00;99.90;;;;;;1757253;82;21219;-77
2023/08/22 02:01:02;;;;;;;3.70;2.75;;;26.90;99.90;;;;;;1757377;82;21284;-76
2023/08/22 02:03:54;;;;;;;3.08;2.55;;;27.00;99.90;;;;;;1757283;82;21605;-76
2023/08/22 02:06:46;;;;;;;4.28;2.60;;;27.00;99.90;;;;;;1757095;82;21148;-76
2023/08/22 02:09:37;;;;;;;2.90;2.60;;;27.00;99.90;;;;;;1757305;82;21249;-76
2023/08/22 02:12:29;;;;;;;4.65;2.55;;;27.00;99.90;;;;;;1757386;82;21161;-76
2023/08/22 02:15:21;;;;;;;4.17;2.60;;;27.00;99.90;;;;;;1757484;82;21137;-76
2023/08/22 02:18:12;;;;;;;2.85;2.60;;;26.90;99.90;;;;;;1757285;82;21140;-76
2023/08/22 02:21:04;;;;;;;2.72;2.27;;;26.90;99.90;;;;;;1757351;82;21657;-76
2023/08/22 02:23:55;;;;;;;4.03;2.62;;;26.80;99.90;;;;;;1757384;82;21584;-76
2023/08/22 02:26:47;;;;;;;3.80;2.47;;;26.80;99.90;;;;;;1757275;82;21264;-76
2023/08/22 02:29:38;;;;;;;4.10;2.70;;;26.80;99.90;;;;;;1757442;82;21235;-76
2023/08/22 02:32:30;;;;;;;3.92;2.52;;;26.80;99.90;;;;;;1757375;82;21141;-76
2023/08/22 02:35:22;;;;;;;2.60;2.30;;;26.80;99.90;;;;;;1765876;80;21202;-76
2023/08/22 02:38:13;;;;;;;3.55;2.77;;;26.80;99.90;;;;;;1788018;80;21143;-76
2023/08/22 02:41:05;;;;;;;2.95;2.65;;;26.80;99.90;;;;;;1787853;80;21147;-76
2023/08/22 02:43:57;;;;;;;2.95;2.50;;;26.70;99.90;;;;;;1787924;80;21134;-76
2023/08/22 02:46:49;;;;;;;3.75;2.70;;;26.70;99.90;;;;;;1787372;80;21618;-76
2023/08/22 02:49:41;;;;;;;3.92;2.87;;;26.70;99.90;;;;;;1787113;80;21199;-76
2023/08/22 02:52:33;;;;;;;3.83;2.65;;;26.70;99.90;;;;;;1787486;80;21165;-76
2023/08/22 02:55:25;;;;;;;2.75;2.50;;;26.60;99.90;;;;;;1787397;80;21175;-76
2023/08/22 02:58:17;;;;;;;3.65;2.62;;;26.70;99.90;;;;;;1787567;80;21169;-76
2023/08/22 03:01:09;;;;;;;3.15;2.75;;;26.70;99.90;;;;;;1787688;80;21604;-76
2023/08/22 03:04:00;;;;;;;4.15;2.67;;;26.70;99.90;;;;;;1787947;80;21142;-76
2023/08/22 03:06:52;;;;;;;3.35;2.85;;;26.60;99.90;;;;;;1787917;80;21103;-76
2023/08/22 03:09:45;;;;;;;3.65;2.80;;;26.50;99.90;;;;;;1787885;80;21209;-76
2023/08/22 03:12:37;;;;;;;5.65;3.15;;;26.50;99.90;;;;;;1787809;80;21194;-76
2023/08/22 03:15:29;;;;;;;3.90;2.72;;;26.60;99.90;;;;;;1787850;80;21228;-76
2023/08/22 03:18:20;;;;;;;4.62;2.77;;;26.50;99.90;;;;;;1788002;80;21261;-76
2023/08/22 03:21:12;;;;;;;4.85;2.85;;;26.20;99.90;;;;;;1787950;80;21613;-76
2023/08/22 03:24:05;;;;;;;4.65;2.80;;;26.10;99.90;;;;;;1788010;80;21146;-76
2023/08/22 03:26:57;;;;;;;6.03;2.70;;;26.10;99.90;;;;;;1787779;80;21166;-76
2023/08/22 03:29:48;;;;;;;3.87;2.90;;;26.20;99.90;;;;;;1788061;80;21143;-76
2023/08/22 03:32:40;;;;;;;3.77;2.90;;;26.30;99.90;;;;;;1788148;80;21150;-76
2023/08/22 03:35:32;;;;;;;3.00;2.70;;;26.30;99.90;;;;;;1788131;80;21150;-76
2023/08/22 03:38:25;;;;;;;4.00;2.70;;;26.30;99.90;;;;;;1787891;80;21570;-76
2023/08/22 03:41:17;;;;;;;4.55;2.65;;;26.30;99.90;;;;;;1787851;80;21099;-76
2023/08/22 03:44:09;;;;;;;4.30;2.70;;;26.30;99.90;;;;;;1787609;80;21225;-76
2023/08/22 03:47:00;;;;;;;5.92;2.67;;;26.10;99.90;;;;;;1787803;79;21143;-76
2023/08/22 03:49:56;;;;;;;6.20;2.72;;;25.90;99.90;;;;;;1787949;80;21110;-76
2023/08/22 03:52:49;;;;;;;4.42;2.75;;;25.90;99.90;;;;;;1787975;80;21154;-76
2023/08/22 03:55:41;;;;;;;4.15;2.65;;;25.90;99.90;;;;;;1787711;80;21208;-76
2023/08/22 03:58:33;;;;;;;4.33;2.77;;;25.80;99.90;;;;;;1787779;80;21108;-76
2023/08/22 04:01:24;;;;;;;4.42;3.20;;;25.90;99.90;;;;;;1787996;80;21213;-76
2023/08/22 04:04:16;;;;;;;7.58;3.37;;;26.00;99.90;;;;;;1787924;80;21143;-77
2023/08/22 04:07:08;;;;;;;5.92;3.77;;;25.90;99.90;;;;;;1787978;80;21219;-77
2023/08/22 04:09:59;;;;;;;3.90;3.40;;;26.00;99.90;;;;;;1788027;80;21141;-77
2023/08/22 04:12:51;;;;;;;4.15;2.98;;;26.10;99.90;;;;;;1787940;80;21583;-77
2023/08/22 04:15:43;;;;;;;4.33;3.00;;;26.00;99.90;;;;;;1787882;80;21150;-76
2023/08/22 04:18:34;;;;;;;7.33;3.25;;;25.90;99.90;;;;;;1788091;80;21120;-76
2023/08/22 04:21:26;;;;;;;5.05;3.50;;;25.90;99.90;;;;;;1788109;80;21721;-76
2023/08/22 04:24:17;;;;;;;4.20;3.00;;;25.90;99.90;;;;;;1788088;80;21177;-76
2023/08/22 04:27:09;;;;;;;6.95;2.75;;;25.80;99.90;;;;;;1787820;80;21136;-76
2023/08/22 04:30:01;;;;;;;6.22;3.08;;;25.60;99.90;;;;;;1788115;80;21136;-76
2023/08/22 04:32:53;;;;;;;4.20;3.10;;;25.60;99.90;;;;;;1787768;80;21208;-76
2023/08/22 04:35:45;;;;;;;5.30;3.50;;;25.70;99.90;;;;;;1787825;80;21133;-76
2023/08/22 04:38:37;;;;;;;6.72;3.15;;;25.70;99.90;;;;;;1762490;80;21243;-76
2023/08/22 04:41:30;;;;;;;5.12;3.17;;;25.80;99.90;;;;;;1757481;82;21195;-76
2023/08/22 04:44:26;;;;;;;6.00;3.00;;;25.70;99.90;;;;;;1757799;82;21203;-76
2023/08/22 04:47:20;;;;;;;4.25;3.02;;;25.80;99.90;;;;;;1757512;82;21130;-76
2023/08/22 04:50:11;;;;;;;4.50;3.15;;;25.90;99.90;;;;;;1757620;82;21243;-76
2023/08/22 04:53:03;;;;;;;6.30;3.00;;;25.90;99.90;;;;;;1757736;82;21126;-76
2023/08/22 04:55:54;;;;;;;3.60;3.10;;;25.90;99.90;;;;;;1757396;82;21226;-76
2023/08/22 04:58:46;;;;;;;4.90;3.30;;;25.90;99.90;;;;;;1757559;82;21128;-76
2023/08/22 05:01:38;;;;;;;3.83;3.45;;;25.90;99.90;;;;;;1757565;82;21182;-77
2023/08/22 05:04:29;;;;;;;4.80;3.00;;;26.00;99.90;;;;;;1757815;82;21149;-77
2023/08/22 05:07:20;;;;;;;4.25;3.27;;;25.90;99.90;;;;;;1757728;82;21124;-76
2023/08/22 05:10:12;;;;;;;6.67;3.25;;;25.90;99.90;;;;;;1757386;82;21160;-76
2023/08/22 05:13:03;;;;;;;3.22;2.92;;;25.90;99.90;;;;;;1757666;82;21147;-76
2023/08/22 05:15:55;;;;;;;3.55;3.05;;;25.90;99.90;;;;;;1757618;82;21120;-76
2023/08/22 05:18:46;;;;;;;6.90;3.17;;;26.00;99.90;;;;;;1757617;82;21124;-76
2023/08/22 05:21:37;;;;;;;6.17;3.45;;;26.00;99.90;;;;;;1757451;82;21077;-77
2023/08/22 05:24:29;;;;;;;4.60;3.35;;;26.10;99.90;;;;;;1757381;82;21132;-76
2023/08/22 05:27:20;;;;;;;4.58;3.40;;;26.10;99.90;;;;;;1757632;82;21128;-76
2023/08/22 05:30:12;;;;;;;3.77;3.40;;;26.10;99.90;;;;;;1757518;82;21651;-76
2023/08/22 05:33:05;;;;;;;5.03;3.47;;;26.10;99.90;;;;;;1757520;82;21128;-76
2023/08/22 05:35:57;;;;;;;5.00;3.67;;;26.20;99.90;;;;;;1757610;82;21124;-76
2023/08/22 05:38:54;;;;;;;5.62;3.70;;;26.20;99.90;;;;;;1757537;80;21109;-76
2023/08/22 05:41:49;;;;;;;4.47;3.58;;;26.20;99.90;;;;;;1756940;82;21710;-76
2023/08/22 05:44:43;;;;;;;5.12;3.50;;;26.30;99.90;;;;;;1757159;82;21164;-76
2023/08/22 05:47:35;;;;;;;4.47;3.40;;;26.30;99.90;;;;;;1757193;82;21194;-76
2023/08/22 05:50:28;;;;;;;5.83;4.70;;;26.40;99.90;;;;;;1756870;82;21088;-76
2023/08/22 05:53:19;;;;;;;6.05;3.90;;;26.50;99.90;;;;;;1757895;82;21153;-77
2023/08/22 05:56:11;;;;;;;6.58;3.87;;;26.50;99.90;;;;;;1757518;82;21136;-76
2023/08/22 05:59:03;;;;;;;6.85;3.40;;;26.50;99.90;;;;;;1757602;82;21093;-76
2023/08/22 06:01:54;;;;;;;5.80;3.35;;;26.50;99.90;;;;;;1757525;82;21181;-76
2023/08/22 06:04:48;;;;;;;4.85;3.65;;;26.50;99.90;;;;;;1757467;82;21172;-77
2023/08/22 06:07:39;;;;;;;5.62;3.85;;;26.50;99.90;;;;;;1757418;82;21152;-77
2023/08/22 06:10:31;;;;;;;7.90;3.72;;;26.60;99.90;;;;;;1757337;82;21141;-77
2023/08/22 06:13:23;;;;;;;5.67;3.47;;;26.60;99.90;;;;;;1757229;82;21245;-76
2023/08/22 06:16:14;;;;;;;4.70;3.42;;;26.70;99.90;;;;;;1757333;82;21247;-76
2023/08/22 06:19:06;;;;;;;7.45;3.85;;;26.70;99.90;;;;;;1757351;82;21179;-76
2023/08/22 06:21:58;;;;;;;4.35;3.40;;;26.80;99.90;;;;;;1757107;82;21155;-77
2023/08/22 06:24:50;;;;;;;7.65;4.03;;;26.90;99.90;;;;;;1756884;82;21636;-77
2023/08/22 06:27:42;;;;;;;5.10;3.98;;;26.90;99.90;;;;;;1756640;82;21222;-76
2023/08/22 06:30:34;;;;;;;6.62;4.03;;;27.00;99.90;;;;;;1756660;82;21661;-76
2023/08/22 06:33:26;;;;;;;6.35;3.90;;;27.10;99.90;;;;;;1756602;82;21164;-76
2023/08/22 06:36:17;;;;;;;6.45;4.55;;;27.10;99.90;;;;;;1757326;82;21152;-78
2023/08/22 06:39:09;;;;;;;11.88;4.45;;;27.10;99.90;;;;;;1757462;80;21156;-76
2023/08/22 06:42:01;;;;;;;7.30;4.20;;;27.10;99.90;;;;;;1757371;82;21129;-77
2023/08/22 06:44:53;;;;;;;7.72;3.98;;;27.10;99.90;;;;;;1757262;82;21155;-76
2023/08/22 06:47:45;;;;;;;6.17;4.10;;;27.20;99.90;;;;;;1757467;82;21301;-77
2023/08/22 06:50:37;;;;;;;7.65;4.20;;;27.20;99.90;;;;;;1757324;82;21089;-77
2023/08/22 06:53:29;;;;;;;8.58;4.40;;;27.10;99.90;;;;;;1757212;82;21085;-76
2023/08/22 06:56:20;;;;;;;7.50;3.90;;;27.10;99.90;;;;;;1757229;82;21169;-76
2023/08/22 06:59:11;;;;;;;10.05;3.80;;;27.10;99.90;;;;;;1757115;82;21171;-76
2023/08/22 07:02:03;;;;;;;8.18;3.62;;;27.20;99.90;;;;;;1757078;82;21259;-76
2023/08/22 07:04:54;;;;;;;5.80;4.00;;;27.20;99.90;;;;;;1757112;82;21147;-76
2023/08/22 07:07:46;;;;;;;6.37;4.10;;;27.30;99.90;;;;;;1757205;82;21124;-76
2023/08/22 07:10:37;;;;;;;9.63;3.85;;;27.30;99.90;;;;;;1757036;82;21085;-76
2023/08/22 07:13:29;;;;;;;5.72;3.85;;;27.40;99.90;;;;;;1757200;82;21097;-77
2023/08/22 07:16:20;;;;;;;6.42;3.77;;;27.50;99.90;;;;;;1757477;82;21169;-76
2023/08/22 07:19:12;;;;;;;8.28;3.95;;;27.60;99.90;;;;;;1757413;82;21149;-76
2023/08/22 07:22:05;;;;;;;5.62;4.00;;;27.70;99.90;;;;;;1757456;82;21148;-76
2023/08/22 07:24:57;;;;;;;6.25;3.92;;;27.70;99.90;;;;;;1757252;82;21175;-76
2023/08/22 07:27:48;;;;;;;7.22;4.25;;;27.80;99.90;;;;;;1757310;82;21100;-76
2023/08/22 07:30:40;;;;;;;5.65;3.92;;;27.90;99.90;;;;;;1757514;82;21133;-77
2023/08/22 07:33:31;;;;;;;6.97;4.20;;;28.00;99.90;;;;;;1757466;82;21286;-77
2023/08/22 07:36:23;;;;;;;6.50;4.25;;;28.10;99.90;;;;;;1757339;82;21203;-76
2023/08/22 07:39:15;;;;;;;4.65;3.92;;;28.10;99.90;;;;;;1757342;82;21238;-77
2023/08/22 07:42:07;;;;;;;4.50;4.03;;;28.10;99.90;;;;;;1757279;82;21137;-76
2023/08/22 07:44:59;;;;;;;7.28;4.20;;;28.20;99.90;;;;;;1757310;82;21093;-77
2023/08/22 07:47:51;;;;;;;5.78;4.17;;;28.20;99.90;;;;;;1757238;82;21183;-77
2023/08/22 07:50:43;;;;;;;6.08;4.40;;;28.30;99.90;;;;;;1757183;82;21126;-76
2023/08/22 07:53:34;;;;;;;5.10;3.65;;;28.30;99.90;;;;;;1757325;82;21101;-76
2023/08/22 07:56:26;;;;;;;6.40;4.45;;;28.40;99.90;;;;;;1757230;82;21124;-76
2023/08/22 07:59:18;;;;;;;7.90;4.42;;;28.40;99.90;;;;;;1757290;82;21122;-76
2023/08/22 08:02:09;;;;;;;7.05;4.20;;;28.50;99.90;;;;;;1757566;82;21284;-76
2023/08/22 08:05:01;;;;;;;10.93;4.70;;;28.60;99.90;;;;;;1757328;82;21136;-76
2023/08/22 08:07:53;;;;;;;8.25;4.70;;;28.70;99.90;;;;;;1757490;82;21210;-76
2023/08/22 08:10:44;;;;;;;8.48;4.37;;;28.80;99.90;;;;;;1757211;82;21136;-76
2023/08/22 08:13:36;;;;;;;6.33;3.87;;;28.90;99.90;;;;;;1757419;82;21169;-76
2023/08/22 08:16:28;;;;;;;6.47;4.15;;;29.00;99.90;;;;;;1757303;82;21573;-77
2023/08/22 08:19:21;;;;;;;4.53;4.10;;;29.00;99.90;;;;;;1757222;82;21226;-76
2023/08/22 08:22:14;;;;;;;9.28;4.62;;;29.20;99.90;;;;;;1757218;82;21140;-76
2023/08/22 08:25:07;;;;;;;5.58;4.28;;;29.20;99.90;;;;;;1757433;82;21191;-76
2023/08/22 08:27:59;;;;;;;6.97;4.35;;;29.30;99.90;;;;;;1757285;82;21097;-76
2023/08/22 08:30:50;;;;;;;9.28;4.47;;;29.40;99.90;;;;;;1757400;82;21262;-76
2023/08/22 08:33:42;;;;;;;4.75;3.92;;;29.50;99.90;;;;;;1757434;82;21136;-76
2023/08/22 08:36:34;;;;;;;6.87;3.90;;;29.60;99.90;;;;;;1757542;82;21173;-76
2023/08/22 08:39:25;;;;;;;6.40;4.45;;;29.70;99.90;;;;;;1757408;82;21185;-76
2023/08/22 08:42:17;;;;;;;6.15;4.37;;;29.80;99.90;;;;;;1757255;80;21243;-76
2023/08/22 08:45:10;;;;;;;5.83;3.65;;;29.80;99.90;;;;;;1757287;82;21085;-76
2023/08/22 08:48:02;;;;;;;5.47;4.20;;;29.90;99.90;;;;;;1757478;82;21556;-77
2023/08/22 08:50:54;;;;;;;6.00;4.10;;;30.00;99.90;;;;;;1757297;82;21097;-77
2023/08/22 08:53:46;;;;;;;7.28;4.05;;;30.10;99.90;;;;;;1757462;82;21109;-77
2023/08/22 08:56:38;;;;;;;4.47;4.08;;;30.20;99.90;;;;;;1757209;82;21529;-77
2023/08/22 08:59:30;;;;;;;7.08;4.20;;;30.20;99.90;;;;;;1757105;82;21264;-77
2023/08/22 09:02:21;;;;;;;6.95;3.87;;;30.30;99.90;;;;;;1757063;82;21196;-77
2023/08/22 09:05:13;;;;;;;5.25;4.03;;;30.40;99.90;;;;;;1757194;82;21631;-76
2023/08/22 09:08:19;;;;;;;4.20;3.30;;;30.50;99.90;;;;;;1745436;82;21261;-76
2023/08/22 09:11:11;;;;;;;4.15;3.50;;;30.50;99.90;;;;;;1745384;82;21137;-76
2023/08/22 09:14:04;;;;;;;4.92;3.70;;;30.60;99.90;;;;;;1745368;82;21093;-76
2023/08/22 09:16:59;;;;;;;5.42;3.98;;;30.70;99.90;;;;;;1745342;82;21241;-77
2023/08/22 09:19:52;;;;;;;6.60;4.15;;;30.70;99.90;;;;;;1745534;82;21144;-77
2023/08/22 09:22:43;;;;;;;4.40;4.00;;;30.90;99.90;;;;;;1745139;82;21098;-77
2023/08/22 09:25:41;;;;;;;7.17;4.72;;;30.90;99.90;;;;;;1745129;82;21145;-76
2023/08/22 09:28:33;;;;;;;6.08;4.42;;;31.00;99.90;;;;;;1745300;82;21596;-76
2023/08/22 09:31:24;;;;;;;6.50;4.37;;;31.10;99.90;;;;;;1745047;82;21668;-76
2023/08/22 09:34:16;;;;;;;8.63;4.22;;;31.10;99.90;;;;;;1745366;82;21197;-76
2023/08/22 09:37:07;;;;;;;5.47;3.90;;;31.10;99.90;;;;;;1745275;82;21149;-76
2023/08/22 09:39:59;;;;;;;7.35;4.50;;;31.30;99.90;;;;;;1745186;82;21145;-77
2023/08/22 09:42:51;;;;;;;5.03;4.25;;;31.30;99.90;;;;;;1732661;82;21197;-76
2023/08/22 09:45:44;;;;;;;4.97;4.15;;;31.40;99.90;;;;;;1725029;83;21144;-76
2023/08/22 09:48:38;;;;;;;6.70;4.58;;;31.50;99.90;;;;;;1764154;81;21149;-76
2023/08/22 09:51:32;;;;;;;6.03;4.60;;;31.60;99.90;;;;;;1712573;84;21182;-76
2023/08/22 09:54:24;;;;;;;13.50;4.90;;;31.60;99.90;;;;;;1764021;81;21130;-76
2023/08/22 09:57:16;;;;;;;9.28;4.50;;;31.80;99.90;;;;;;1712452;84;21701;-77
2023/08/22 10:00:11;;;;;;;7.20;4.65;;;31.90;99.90;;;;;;1764066;81;21606;-76
2023/08/22 10:03:07;;;;;;;6.08;4.40;;;31.90;99.90;;;;;;1712525;83;21170;-76
2023/08/22 10:06:00;;;;;;;6.42;4.03;;;32.10;99.90;;;;;;1764078;81;21134;-77
2023/08/22 10:08:51;;;;;;;5.37;4.17;;;32.20;99.90;;;;;;1712363;84;21161;-76
2023/08/22 10:11:49;;;;;;;7.97;4.80;;;32.30;99.90;;;;;;1763878;81;21163;-77
2023/08/22 10:14:44;;;;;;;7.85;4.45;;;32.30;99.90;;;;;;1712314;83;21901;-77
2023/08/22 10:17:37;;;;;;;7.45;4.83;;;32.40;99.90;;;;;;1763525;81;21157;-78
2023/08/22 10:20:28;;;;;;;6.58;4.58;;;32.50;99.90;;;;;;1746682;81;21606;-77
2023/08/22 10:23:21;;;;;;;6.53;3.98;;;32.50;99.90;;;;;;1757726;82;21529;-77
2023/08/22 10:26:15;;;;;;;5.75;4.65;;;32.50;99.90;;;;;;1797640;80;21117;-76
2023/08/22 10:29:17;;;;;;;6.20;3.98;;;32.60;99.90;;;;;;1762454;81;21136;-76
2023/08/22 10:32:25;;;;;;;6.33;3.90;;;32.70;99.90;;;;;;1775846;81;21577;-76
2023/08/22 10:35:27;;;;;;;5.25;3.80;;;32.80;99.20;;;;;;1775902;81;21136;-77
2023/08/22 10:38:21;;;;;;;4.85;4.22;;;33.00;99.10;;;;;;1775681;81;21168;-76
2023/08/22 10:41:14;;;;;;;6.58;3.60;;;33.00;98.50;;;;;;1775876;81;21147;-76
2023/08/22 10:44:08;;;;;;;6.45;3.85;;;33.00;97.60;;;;;;1791657;79;21604;-76
2023/08/22 10:47:04;;;;;;;5.80;3.70;;;33.00;96.80;;;;;;1810810;79;21161;-76
2023/08/22 10:49:56;;;;;;;5.58;3.90;;;33.10;96.40;;;;;;1810630;79;21168;-76
2023/08/22 10:52:49;;;;;;;4.53;4.03;;;33.20;96.20;;;;;;1797288;80;21621;-76
2023/08/22 10:55:43;;;;;;;5.35;3.90;;;33.10;96.30;;;;;;1797395;80;21164;-76
2023/08/22 10:58:42;;;;;;;5.75;4.00;;;33.10;96.60;;;;;;1810894;79;21094;-76
2023/08/22 11:01:34;;;;;;;6.95;4.37;;;33.20;96.30;;;;;;1797390;80;21163;-76
2023/08/22 11:04:26;;;;;;;6.40;4.45;;;33.30;96.20;;;;;;1797410;80;21588;-77
2023/08/22 11:07:17;;;;;;;5.28;3.80;;;33.40;95.70;;;;;;1776091;79;21112;-76
2023/08/22 11:10:12;;;;;;;4.80;4.00;;;33.50;95.70;;;;;;1767894;81;21163;-76
2023/08/22 11:13:06;;;;;;;6.10;4.33;;;33.60;95.80;;;;;;1768283;81;21085;-77
2023/08/22 11:15:58;;;;;;;4.17;3.60;;;33.60;95.70;;;;;;1768227;81;21247;-76
2023/08/22 11:18:50;;;;;;;7.15;3.87;;;33.80;95.30;;;;;;1768396;81;21180;-76
2023/08/22 11:21:42;;;;;;;4.42;3.87;;;33.90;95.20;;;;;;1768398;81;21176;-76
2023/08/22 11:24:33;;;;;;;7.33;4.00;;;34.00;95.00;;;;;;1761029;81;21205;-76
2023/08/22 11:27:25;;;;;;;4.35;3.95;;;34.10;94.70;;;;;;1768240;81;21096;-76
2023/08/22 11:30:19;;;;;;;5.42;3.83;;;34.10;94.40;;;;;;1768267;81;21132;-76
2023/08/22 11:33:11;;;;;;;4.47;3.70;;;34.20;94.10;;;;;;1768095;81;21136;-76
2023/08/22 11:36:03;;;;;;;5.53;3.83;;;34.30;93.60;;;;;;1768342;81;21245;-76
2023/08/22 11:38:54;;;;;;;4.20;3.80;;;34.40;93.80;;;;;;1768298;81;21100;-76
2023/08/22 11:41:45;;;;;;;5.15;3.70;;;34.40;93.80;;;;;;1768359;81;21182;-76
2023/08/22 11:44:53;;;;;;;4.10;3.67;;;34.60;93.60;;;;;;1776100;80;21156;-76
2023/08/22 11:47:46;;;;;;;6.72;3.85;;;34.80;93.40;;;;;;1752656;82;21076;-76
2023/08/22 11:50:38;;;;;;;5.03;3.80;;;34.80;93.00;;;;;;1782290;80;21153;-77
2023/08/22 11:53:32;;;;;;;4.28;3.83;;;34.80;92.80;;;;;;1752463;82;21127;-76
2023/08/22 11:56:23;;;;;;;5.33;3.87;;;34.90;92.40;;;;;;1782080;80;21156;-76
2023/08/22 11:59:15;;;;;;;5.75;4.03;;;35.00;91.90;;;;;;1752047;82;21237;-76
2023/08/22 12:02:08;;;;;;;5.62;4.00;;;35.10;91.20;;;;;;1781446;80;21205;-76
2023/08/22 12:04:59;;;;;;;3.90;3.50;;;35.10;91.00;;;;;;1752293;82;21142;-77
2023/08/22 12:07:51;;;;;;;4.72;3.75;;;35.10;91.00;;;;;;1782302;80;22249;-76
2023/08/22 12:10:43;;;;;;;7.12;3.80;;;35.20;90.80;;;;;;1752403;82;21716;-76
2023/08/22 12:13:34;;;;;;;3.90;3.30;;;35.30;90.80;;;;;;1782382;80;21105;-76
2023/08/22 12:16:27;;;;;;;4.10;3.70;;;35.40;90.70;;;;;;1752626;82;21127;-76
2023/08/22 12:19:18;;;;;;;5.97;3.55;;;35.40;90.50;;;;;;1782267;80;21101;-76
2023/08/22 12:22:10;;;;;;;4.30;3.60;;;35.50;90.40;;;;;;1752695;82;21077;-76
2023/08/22 12:25:01;;;;;;;4.53;3.60;;;35.70;90.40;;;;;;1782153;80;21565;-76
2023/08/22 12:27:53;;;;;;;5.65;3.58;;;35.70;90.50;;;;;;1752382;82;21130;-76
2023/08/22 12:30:44;;;;;;;6.33;3.42;;;35.80;90.70;;;;;;1782254;80;21233;-76
2023/08/22 12:33:36;;;;;;;6.80;3.27;;;36.00;90.40;;;;;;1752448;82;21158;-79
2023/08/22 12:36:27;;;;;;;3.85;3.20;;;36.00;90.20;;;;;;1782047;80;21201;-77
2023/08/22 12:39:19;;;;;;;3.60;3.30;;;36.10;88.80;;;;;;1752252;82;21183;-77
2023/08/22 12:42:10;;;;;;;3.22;2.72;;;36.20;88.40;;;;;;1782267;80;21165;-77
2023/08/22 12:45:03;;;;;;;4.70;3.25;;;36.20;88.30;;;;;;1746428;82;21209;-77
2023/08/22 12:47:54;;;;;;;3.50;3.20;;;36.30;87.80;;;;;;1748028;82;21193;-78
2023/08/22 12:50:45;;;;;;;3.85;3.08;;;36.40;86.10;;;;;;1795973;80;21206;-77
2023/08/22 12:53:37;;;;;;;2.90;2.60;;;36.50;86.50;;;;;;1748323;80;21152;-77
2023/08/22 12:56:28;;;;;;;4.30;2.67;;;36.60;86.20;;;;;;1748154;82;21149;-77
2023/08/22 12:59:21;;;;;;;5.97;2.37;;;36.70;84.70;;;;;;1796307;80;21624;-76
2023/08/22 13:02:13;;;;;;;4.70;2.70;;;36.80;83.40;;;;;;1748282;80;21190;-77
2023/08/22 13:05:06;;;;;;;7.03;2.90;;;36.90;82.00;;;;;;1748354;82;21102;-78
2023/08/22 13:07:57;;;;;;;4.62;2.72;;;37.00;82.10;;;;;;1796260;80;21221;-77
2023/08/22 13:10:52;;;;;;;3.22;2.50;;;37.20;80.80;;;;;;1748276;81;21142;-78
2023/08/22 13:13:43;;;;;;;4.37;2.45;;;37.20;79.30;;;;;;1748336;82;21648;-77
2023/08/22 13:16:34;;;;;;;2.60;2.40;;;37.10;77.50;;;;;;1796436;80;21176;-77
2023/08/22 13:19:26;;;;;;;3.80;2.35;;;37.20;77.70;;;;;;1748549;81;21142;-77
2023/08/22 13:22:17;;;;;;;3.08;2.37;;;37.20;76.80;;;;;;1748335;82;21202;-77
2023/08/22 13:25:11;;;;;;;3.90;2.20;;;37.30;76.40;;;;;;1796103;80;21085;-77
2023/08/22 13:28:02;;;;;;;3.77;2.05;;;37.40;75.20;;;;;;1748366;80;21157;-76
2023/08/22 13:30:53;;;;;;;2.58;2.25;;;37.40;73.40;;;;;;1795925;80;21128;-76
2023/08/22 13:33:45;;;;;;;5.50;2.37;;;37.50;72.80;;;;;;1748343;81;21232;-78
2023/08/22 13:36:36;;;;;;;3.83;1.87;;;37.60;72.40;;;;;;1795994;80;21140;-77
2023/08/22 13:39:27;;;;;;;3.33;1.98;;;37.70;72.10;;;;;;1748060;81;21594;-77
2023/08/22 13:42:19;;;;;;;3.98;2.12;;;37.70;71.10;;;;;;1796299;80;21286;-77
2023/08/22 13:45:11;;;;;;;3.33;2.10;;;37.90;70.10;;;;;;1748543;80;21150;-78
2023/08/22 13:48:02;;;;;;;3.22;1.80;;;38.00;69.40;;;;;;1748230;82;21166;-77
2023/08/22 13:50:55;;;;;;;2.90;1.98;;;38.20;67.80;;;;;;1796297;80;21120;-77
2023/08/22 13:53:47;;;;;;;3.25;1.77;;;38.10;67.90;;;;;;1748311;80;21174;-78
2023/08/22 13:56:38;;;;;;;4.42;1.77;;;38.20;66.80;;;;;;1796051;80;21144;-80
2023/08/22 13:59:29;;;;;;;3.40;1.75;;;38.40;65.00;;;;;;1748136;82;21151;-80
2023/08/22 14:02:21;;;;;;;4.67;2.10;;;38.40;64.00;;;;;;1748162;82;21240;-79
2023/08/22 14:05:12;;;;;;;1.77;1.67;;;38.50;63.50;;;;;;1795660;80;21128;-78
2023/08/22 14:08:05;;;;;;;2.62;1.70;;;38.70;62.50;;;;;;1748170;82;21149;-79
2023/08/22 14:10:57;;;;;;;3.15;1.55;;;39.40;61.30;;;;;;1796089;80;21140;-80
2023/08/22 14:13:50;;;;;;;1.82;1.60;;;39.70;59.50;;;;;;1748280;81;21257;-78
2023/08/22 14:16:42;;;;;;;2.67;1.87;;;39.80;58.20;;;;;;1796251;80;21139;-79
2023/08/22 14:19:33;;;;;;;1.92;1.70;;;40.00;57.40;;;;;;1748155;82;21150;-80
2023/08/22 14:22:24;;;;;;;3.85;1.50;;;40.30;57.10;;;;;;1748093;82;21168;-77
2023/08/22 14:25:16;;;;;;;1.87;1.40;;;40.70;56.70;;;;;;1795925;80;21136;-80
2023/08/22 14:28:08;;;;;;;3.02;1.87;;;40.90;56.20;;;;;;1748272;81;21146;-78
2023/08/22 14:31:03;;;;;;;2.12;1.47;;;40.90;55.30;;;;;;1796371;80;21159;-79
2023/08/22 14:33:55;;;;;;;2.43;1.70;;;40.90;54.80;;;;;;1748634;80;21139;-78
2023/08/22 14:36:46;;;;;;;2.65;1.45;;;41.30;54.10;;;;;;1796376;80;21132;-76
2023/08/22 14:39:37;;;;;;;1.95;1.60;;;41.30;53.60;;;;;;1748354;80;21154;-78
2023/08/22 14:42:29;;;;;;;4.45;1.90;;;41.40;52.90;;;;;;1796408;80;21155;-78
2023/08/22 14:45:21;;;;;;;2.25;1.55;;;41.60;53.20;;;;;;1748353;80;21142;-78
2023/08/22 14:48:12;;;;;;;3.17;1.75;;;41.80;51.70;;;;;;1764876;79;21234;-81
2023/08/22 14:51:04;;;;;;;4.53;1.70;;;41.80;51.70;;;;;;1768193;81;21187;-80
2023/08/22 14:53:55;;;;;;;2.60;1.60;;;42.10;51.30;;;;;;1768177;81;21162;-78